createdAt,value
2022-08-16T00:01:24.744Z,99733.34
2022-08-16T00:03:55.174Z,99731.41
2022-08-16T00:06:23.374Z,99728.03
2022-08-16T00:08:52.394Z,99733.63
2022-08-16T00:11:21.354Z,99726.03
2022-08-16T00:13:53.757Z,99726.31
2022-08-16T00:17:05.885Z,99727.72
2022-08-16T00:19:15.847Z,99723.50
2022-08-16T00:21:44.865Z,99731.63
2022-08-16T00:24:13.868Z,99730.22
2022-08-16T00:27:01.268Z,99736.66
2022-08-16T00:29:30.472Z,99742.97
2022-08-16T00:32:01.144Z,99732.44
2022-08-16T00:34:43.229Z,99735.38
2022-08-16T00:37:17.109Z,99740.56
2022-08-16T00:39:57.566Z,99730.19
2022-08-16T00:42:32.331Z,99733.00
2022-08-16T00:45:09.684Z,99739.44
2022-08-16T00:47:49.519Z,99726.13
2022-08-16T00:50:36.346Z,99739.00
2022-08-16T00:53:07.780Z,99733.81
2022-08-16T00:55:40.207Z,99735.09
2022-08-16T00:58:12.976Z,99735.25
2022-08-16T01:00:54.121Z,99738.19
2022-08-16T01:03:31.588Z,99730.63
2022-08-16T01:06:39.541Z,99732.72
2022-08-16T01:08:56.100Z,99725.97
2022-08-16T01:11:30.632Z,99729.97
2022-08-16T01:14:11.105Z,99738.66
2022-08-16T01:16:43.123Z,99727.28
2022-08-16T01:19:23.203Z,99723.09
2022-08-16T01:21:54.697Z,99725.75
2022-08-16T01:24:51.430Z,99725.28
2022-08-16T01:27:19.573Z,99728.13
2022-08-16T01:29:59.789Z,99719.97
2022-08-16T01:32:34.158Z,99719.78
2022-08-16T01:35:08.459Z,99718.50
2022-08-16T01:37:54.192Z,99713.13
2022-08-16T01:40:29.749Z,99713.66
2022-08-16T01:42:58.966Z,99707.75
2022-08-16T01:45:40.538Z,99702.03
2022-08-16T01:48:19.719Z,99704.09
2022-08-16T01:51:09.519Z,99705.22
2022-08-16T01:53:41.323Z,99694.25
2022-08-16T01:56:27.724Z,99703.78
2022-08-16T01:58:58.932Z,99705.53
2022-08-16T02:01:29.465Z,99696.13
2022-08-16T02:04:10.886Z,99697.88
2022-08-16T02:06:46.656Z,99694.78
2022-08-16T02:09:23.917Z,99693.88
2022-08-16T02:11:59.495Z,99691.03
2022-08-16T02:14:49.325Z,99687.13
2022-08-16T02:17:19.321Z,99682.53
2022-08-16T02:19:58.922Z,99678.19
2022-08-16T02:22:34.687Z,99683.25
2022-08-16T02:25:14.883Z,99677.88
2022-08-16T02:27:50.677Z,99688.16
2022-08-16T02:30:37.246Z,99685.66
2022-08-16T02:33:12.934Z,99692.44
2022-08-16T02:35:53.783Z,99688.16
2022-08-16T02:38:26.982Z,99683.69
2022-08-16T02:40:56.639Z,99679.09
2022-08-16T02:43:27.584Z,99684.41
2022-08-16T02:45:59.247Z,99688.28
2022-08-16T02:48:31.192Z,99687.38
2022-08-16T02:51:10.551Z,99686.91
2022-08-16T02:53:46.840Z,99687.19
2022-08-16T02:56:17.956Z,99689.00
2022-08-16T02:58:50.175Z,99693.19
2022-08-16T03:01:24.096Z,99695.19
2022-08-16T03:04:24.736Z,99695.06
2022-08-16T03:06:43.426Z,99693.84
2022-08-16T03:09:25.091Z,99697.72
2022-08-16T03:11:55.169Z,99692.16
2022-08-16T03:14:24.516Z,99694.09
2022-08-16T03:17:00.213Z,99702.41
2022-08-16T03:19:48.446Z,99695.28
2022-08-16T03:22:28.144Z,99690.56
2022-08-16T03:25:02.186Z,99693.34
2022-08-16T03:27:33.786Z,99698.66
2022-08-16T03:30:16.082Z,99684.91
2022-08-16T03:32:51.615Z,99675.38
2022-08-16T03:35:24.076Z,99682.97
2022-08-16T03:38:33.009Z,99688.53
2022-08-16T03:40:57.775Z,99685.16
2022-08-16T03:43:51.603Z,99695.28
2022-08-16T03:46:44.424Z,99697.69
2022-08-16T03:49:10.826Z,99704.44
2022-08-16T03:51:42.885Z,99707.34
2022-08-16T03:54:15.915Z,99709.50
2022-08-16T03:56:57.219Z,99706.00
2022-08-16T03:59:30.292Z,99711.63
2022-08-16T04:02:22.393Z,99721.16
2022-08-16T04:04:54.149Z,99713.31
2022-08-16T04:07:23.243Z,99718.13
2022-08-16T04:09:53.739Z,99719.81
2022-08-16T04:12:54.778Z,99723.63
2022-08-16T04:15:16.860Z,99725.19
2022-08-16T04:17:56.197Z,99724.09
2022-08-16T04:20:31.317Z,99717.03
2022-08-16T04:23:04.691Z,99720.25
2022-08-16T04:25:35.074Z,99718.06
2022-08-16T04:28:54.472Z,99720.84
2022-08-16T04:30:53.131Z,99715.28
2022-08-16T04:33:27.077Z,99718.63
2022-08-16T04:35:58.359Z,99720.31
2022-08-16T04:38:27.593Z,99720.66
2022-08-16T04:40:58.525Z,99728.66
2022-08-16T04:43:26.957Z,99722.66
2022-08-16T04:46:00.332Z,99732.13
2022-08-16T04:48:34.267Z,99729.88
2022-08-16T04:51:12.008Z,99729.94
2022-08-16T04:53:45.884Z,99734.84
2022-08-16T04:56:16.505Z,99735.41
2022-08-16T04:58:46.822Z,99739.25
2022-08-16T05:01:19.074Z,99737.81
2022-08-16T05:03:59.716Z,99738.94
2022-08-16T05:06:45.548Z,99735.53
2022-08-16T05:09:39.419Z,99744.47
2022-08-16T05:12:18.189Z,99746.16
2022-08-16T05:15:02.414Z,99753.78
2022-08-16T05:17:34.566Z,99752.75
2022-08-16T05:20:38.858Z,99755.03
2022-08-16T05:22:59.928Z,99757.25
2022-08-16T05:25:41.257Z,99762.16
2022-08-16T05:28:18.689Z,99766.75
2022-08-16T05:30:52.606Z,99766.47
2022-08-16T05:33:25.903Z,99768.09
2022-08-16T05:35:57.915Z,99762.72
2022-08-16T05:38:38.802Z,99768.09
2022-08-16T05:41:11.037Z,99774.19
2022-08-16T05:43:46.321Z,99773.34
2022-08-16T05:46:30.502Z,99775.03
2022-08-16T05:49:09.024Z,99776.47
2022-08-16T05:51:41.714Z,99765.66
2022-08-16T05:54:17.567Z,99779.56
2022-08-16T05:56:57.059Z,99781.69
2022-08-16T05:59:27.382Z,99777.66
2022-08-16T06:01:56.591Z,99774.50
2022-08-16T06:04:36.570Z,99772.91
2022-08-16T06:07:24.587Z,99764.69
2022-08-16T06:10:32.301Z,99759.22
2022-08-16T06:13:02.622Z,99758.47
2022-08-16T06:15:30.943Z,99766.66
2022-08-16T06:18:00.595Z,99766.84
2022-08-16T06:20:35.895Z,99768.09
2022-08-16T06:23:18.231Z,99771.63
2022-08-16T06:25:57.192Z,99765.66
2022-08-16T06:28:35.905Z,99766.81
2022-08-16T06:31:06.874Z,99775.41
2022-08-16T06:33:42.373Z,99772.06
2022-08-16T06:36:14.730Z,99765.34
2022-08-16T06:38:55.673Z,99768.69
2022-08-16T06:41:43.217Z,99771.88
2022-08-16T06:44:24.385Z,99771.03
2022-08-16T06:46:57.157Z,99766.28
2022-08-16T06:49:25.283Z,99758.91
2022-08-16T06:51:53.138Z,99758.53
2022-08-16T06:54:34.673Z,99762.41
2022-08-16T06:57:03.214Z,99769.44
2022-08-16T06:59:52.101Z,99767.09
2022-08-16T07:02:33.400Z,99768.22
2022-08-16T07:05:03.608Z,99766.94
2022-08-16T07:07:50.873Z,99776.03
2022-08-16T07:10:26.810Z,99771.25
2022-08-16T07:13:04.540Z,99754.50
2022-08-16T07:15:50.062Z,99772.31
2022-08-16T07:18:21.790Z,99765.44
2022-08-16T07:20:53.960Z,99760.91
2022-08-16T07:23:38.947Z,99761.69
2022-08-16T07:26:24.374Z,99755.38
2022-08-16T07:28:53.352Z,99766.47
2022-08-16T07:31:21.999Z,99761.00
2022-08-16T07:33:53.743Z,99769.97
2022-08-16T07:36:34.280Z,99763.72
2022-08-16T07:39:03.808Z,99767.63
2022-08-16T07:41:36.433Z,99760.78
2022-08-16T07:44:16.610Z,99764.91
2022-08-16T07:46:47.868Z,99768.44
2022-08-16T07:49:24.731Z,99764.19
2022-08-16T07:51:54.386Z,99765.06
2022-08-16T07:54:32.232Z,99767.66
2022-08-16T07:57:11.296Z,99771.88
2022-08-16T07:59:45.598Z,99771.56
2022-08-16T08:02:19.665Z,99776.34
2022-08-16T08:04:50.206Z,99771.84
2022-08-16T08:07:18.453Z,99773.22
2022-08-16T08:09:50.156Z,99766.41
2022-08-16T08:12:32.336Z,99774.34
2022-08-16T08:15:09.604Z,99769.22
2022-08-16T08:17:42.783Z,99772.41
2022-08-16T08:20:20.644Z,99762.75
2022-08-16T08:23:01.044Z,99766.06
2022-08-16T08:25:53.604Z,99771.63
2022-08-16T08:28:25.628Z,99763.06
2022-08-16T08:31:02.799Z,99758.91
2022-08-16T08:33:35.729Z,99758.06
2022-08-16T08:36:08.063Z,99753.81
2022-08-16T08:38:45.009Z,99752.13
2022-08-16T08:41:18.584Z,99757.09
2022-08-16T08:43:50.789Z,99758.84
2022-08-16T08:46:22.014Z,99763.25
2022-08-16T08:48:59.843Z,99768.34
2022-08-16T08:51:31.861Z,99761.84
2022-08-16T08:54:07.015Z,99771.56
2022-08-16T08:56:45.845Z,99775.66
2022-08-16T08:59:40.906Z,99767.66
2022-08-16T09:02:14.797Z,99764.03
2022-08-16T09:04:52.237Z,99772.34
2022-08-16T09:07:23.806Z,99779.47
2022-08-16T09:10:06.826Z,99771.00
2022-08-16T09:12:46.580Z,99775.34
2022-08-16T09:15:23.830Z,99775.78
2022-08-16T09:17:55.654Z,99762.09
2022-08-16T09:20:29.408Z,99772.84
2022-08-16T09:22:59.081Z,99782.28
2022-08-16T09:25:33.804Z,99773.66
2022-08-16T09:28:09.377Z,99787.69
2022-08-16T09:30:51.204Z,99775.34
2022-08-16T09:33:20.029Z,99780.06
2022-08-16T09:35:53.075Z,99786.47
2022-08-16T09:38:31.803Z,99785.25
2022-08-16T09:41:06.088Z,99789.41
2022-08-16T09:43:59.554Z,99791.13
2022-08-16T09:46:45.970Z,99786.28
2022-08-16T09:49:20.038Z,99781.97
2022-08-16T09:51:55.622Z,99776.34
2022-08-16T09:54:32.566Z,99786.56
2022-08-16T09:57:01.432Z,99787.63
2022-08-16T09:59:30.739Z,99793.78
2022-08-16T10:01:59.758Z,99791.59
2022-08-16T10:04:31.600Z,99793.53
2022-08-16T10:07:15.098Z,99793.75
2022-08-16T10:09:53.886Z,99800.91
2022-08-16T10:12:44.454Z,99802.75
2022-08-16T10:15:21.085Z,99810.19
2022-08-16T10:18:01.187Z,99820.81
2022-08-16T10:20:34.892Z,99827.19
2022-08-16T10:23:17.224Z,99821.44
2022-08-16T10:27:16.723Z,99830.72
2022-08-16T10:28:39.415Z,99821.03
2022-08-16T10:31:11.715Z,99824.00
2022-08-16T10:33:42.797Z,99828.81
2022-08-16T10:36:38.119Z,99834.81
2022-08-16T10:39:03.543Z,99837.50
2022-08-16T10:41:33.448Z,99836.13
2022-08-16T10:44:01.730Z,99838.38
2022-08-16T10:46:40.097Z,99839.28
2022-08-16T10:49:12.458Z,99838.16
2022-08-16T10:52:02.587Z,99843.66
2022-08-16T10:54:32.220Z,99851.91
2022-08-16T10:57:04.353Z,99853.41
2022-08-16T10:59:44.159Z,99844.84
2022-08-16T11:02:58.779Z,99849.38
2022-08-16T11:05:14.070Z,99841.09
2022-08-16T11:07:55.198Z,99847.25
2022-08-16T11:13:57.523Z,99847.13
2022-08-16T11:16:26.295Z,99850.72
2022-08-16T11:19:05.971Z,99854.06
2022-08-16T11:24:40.139Z,99851.50
2022-08-16T11:27:19.673Z,99851.63
2022-08-16T11:29:52.890Z,99851.69
2022-08-16T11:32:29.863Z,99854.75
2022-08-16T11:35:10.952Z,99858.78
2022-08-16T11:40:40.786Z,99839.06
2022-08-16T11:43:17.100Z,99847.81
2022-08-16T11:45:53.808Z,99843.00
2022-08-16T11:48:24.862Z,99842.84
2022-08-16T11:50:54.082Z,99834.47
2022-08-16T11:53:24.331Z,99838.66
2022-08-16T11:55:56.062Z,99835.31
2022-08-16T11:58:26.606Z,99822.72
2022-08-16T12:00:57.845Z,99820.72
2022-08-16T12:03:31.089Z,99827.09
2022-08-16T12:06:24.929Z,99833.47
2022-08-16T12:09:00.871Z,99827.09
2022-08-16T12:11:31.717Z,99833.78
2022-08-16T12:14:04.998Z,99827.44
2022-08-16T12:16:35.677Z,99832.47
2022-08-16T12:19:06.921Z,99826.09
2022-08-16T12:21:59.144Z,99832.44
2022-08-16T12:24:28.407Z,99825.22
2022-08-16T12:26:56.944Z,99830.69
2022-08-16T12:29:25.780Z,99831.34
2022-08-16T12:32:00.949Z,99819.22
2022-08-16T12:34:50.887Z,99822.13
2022-08-16T12:37:24.378Z,99814.81
2022-08-16T12:39:56.188Z,99813.03
2022-08-16T12:42:34.535Z,99814.19
2022-08-16T12:45:11.313Z,99810.38
2022-08-16T12:48:29.404Z,99812.69
2022-08-16T12:50:49.346Z,99808.47
2022-08-16T12:53:20.634Z,99802.00
2022-08-16T12:55:49.524Z,99795.66
2022-08-16T12:58:47.431Z,99789.06
2022-08-16T13:01:07.024Z,99787.41
2022-08-16T13:03:40.542Z,99787.50
2022-08-16T13:06:09.401Z,99785.25
2022-08-16T13:08:41.358Z,99785.16
2022-08-16T13:11:14.379Z,99781.94
2022-08-16T13:13:45.536Z,99776.25
2022-08-16T13:16:20.407Z,99770.34
2022-08-16T13:18:54.583Z,99775.88
2022-08-16T13:21:23.633Z,99764.53
2022-08-16T13:23:55.522Z,99777.81
2022-08-16T13:26:26.489Z,99763.94
2022-08-16T13:28:54.965Z,99762.34
2022-08-16T13:31:24.105Z,99764.84
2022-08-16T13:33:54.545Z,99764.56
2022-08-16T13:36:47.940Z,99749.53
2022-08-16T13:39:15.303Z,99756.22
2022-08-16T13:41:43.529Z,99756.66
2022-08-16T13:44:21.762Z,99751.97
2022-08-16T13:46:50.384Z,99746.25
2022-08-16T13:49:18.678Z,99744.97
2022-08-16T13:51:48.918Z,99757.78
2022-08-16T13:56:46.053Z,99748.22
2022-08-16T13:59:20.131Z,99748.41
2022-08-16T14:02:05.349Z,99740.06
2022-08-16T14:04:38.125Z,99734.38
2022-08-16T14:07:11.474Z,99729.00
2022-08-16T14:09:41.049Z,99728.06
2022-08-16T14:12:23.261Z,99713.47
2022-08-16T14:14:54.508Z,99714.13
2022-08-16T14:17:25.545Z,99706.44
2022-08-16T14:19:53.853Z,99706.16
2022-08-16T14:22:35.761Z,99702.19
2022-08-16T14:25:10.543Z,99705.09
2022-08-16T14:27:42.171Z,99705.75
2022-08-16T14:30:15.514Z,99707.94
2022-08-16T14:32:49.726Z,99701.41
2022-08-16T14:35:29.286Z,99706.34
2022-08-16T14:38:05.783Z,99709.28
2022-08-16T14:40:34.244Z,99712.00
2022-08-16T14:43:07.106Z,99712.56
2022-08-16T14:45:36.893Z,99703.38
2022-08-16T14:48:04.977Z,99705.66
2022-08-16T14:50:33.866Z,99689.13
2022-08-16T14:53:06.175Z,99698.78
2022-08-16T14:55:36.545Z,99694.50
2022-08-16T14:58:05.520Z,99700.84
2022-08-16T15:00:36.639Z,99691.81
2022-08-16T15:03:09.943Z,99687.53
2022-08-16T15:05:40.273Z,99688.00
2022-08-16T15:08:10.459Z,99694.31
2022-08-16T15:10:44.875Z,99691.50
2022-08-16T15:13:14.995Z,99697.47
2022-08-16T15:15:43.528Z,99695.31
2022-08-16T15:18:13.893Z,99700.63
2022-08-16T15:20:54.533Z,99698.56
2022-08-16T15:23:25.094Z,99692.06
2022-08-16T15:26:03.438Z,99701.81
2022-08-16T15:28:33.016Z,99701.47
2022-08-16T15:31:03.646Z,99705.94
2022-08-16T15:33:35.111Z,99709.50
2022-08-16T15:36:05.058Z,99707.34
2022-08-16T15:39:03.765Z,99714.88
2022-08-16T15:41:39.129Z,99724.53
2022-08-16T15:44:15.296Z,99733.25
2022-08-16T15:46:56.941Z,99733.84
2022-08-16T15:49:37.027Z,99725.94
2022-08-16T15:52:20.352Z,99729.75
2022-08-16T15:54:55.340Z,99725.25
2022-08-16T15:57:25.258Z,99729.78
2022-08-16T15:59:56.400Z,99731.78
2022-08-16T16:02:40.752Z,99730.88
2022-08-16T16:05:10.385Z,99739.84
2022-08-16T16:07:55.921Z,99738.59
2022-08-16T16:10:29.407Z,99739.25
2022-08-16T16:13:00.325Z,99743.66
2022-08-16T16:15:33.438Z,99736.38
2022-08-16T16:18:05.078Z,99738.44
2022-08-16T16:20:39.787Z,99740.06
2022-08-16T16:23:11.157Z,99735.78
2022-08-16T16:25:43.875Z,99741.19
2022-08-16T16:29:04.993Z,99738.25
2022-08-16T16:31:06.315Z,99744.50
2022-08-16T16:33:36.983Z,99746.34
2022-08-16T16:36:07.713Z,99747.84
2022-08-16T16:38:36.034Z,99753.09
2022-08-16T16:41:10.274Z,99760.72
2022-08-16T16:43:41.098Z,99753.72
2022-08-16T16:46:32.725Z,99758.94
2022-08-16T16:49:03.124Z,99754.91
2022-08-16T16:51:40.399Z,99761.31
2022-08-16T16:54:13.176Z,99764.34
2022-08-16T16:56:49.834Z,99758.31
2022-08-16T16:59:20.141Z,99767.53
2022-08-16T17:02:00.377Z,99766.06
2022-08-16T17:04:38.917Z,99766.19
2022-08-16T17:07:10.657Z,99772.00
2022-08-16T17:09:41.119Z,99774.00
2022-08-16T17:12:14.581Z,99773.44
2022-08-16T17:14:55.140Z,99777.56
2022-08-16T17:17:23.861Z,99781.88
2022-08-16T17:19:52.484Z,99786.88
2022-08-16T17:22:24.055Z,99780.50
2022-08-16T17:25:01.866Z,99785.66
2022-08-16T17:27:32.884Z,99785.25
2022-08-16T17:30:18.228Z,99789.75
2022-08-16T17:32:50.518Z,99781.38
2022-08-16T17:35:34.058Z,99788.75
2022-08-16T17:38:07.063Z,99790.53
2022-08-16T17:40:47.792Z,99791.69
2022-08-16T17:43:44.420Z,99798.28
2022-08-16T17:46:41.148Z,99802.31
2022-08-16T17:49:03.861Z,99798.97
2022-08-16T17:51:34.436Z,99798.28
2022-08-16T17:54:03.881Z,99801.50
2022-08-16T17:56:32.308Z,99794.06
2022-08-16T17:59:01.209Z,99793.31
2022-08-16T18:01:30.328Z,99808.00
2022-08-16T18:04:07.206Z,99812.66
2022-08-16T18:06:38.769Z,99810.28
2022-08-16T18:09:09.394Z,99819.59
2022-08-16T18:11:41.304Z,99820.66
2022-08-16T18:14:12.161Z,99815.88
2022-08-16T18:16:41.369Z,99816.03
2022-08-16T18:19:11.060Z,99820.50
2022-08-16T18:21:59.890Z,99825.75
2022-08-16T18:24:28.290Z,99832.44
2022-08-16T18:26:56.598Z,99825.88
2022-08-16T18:29:45.148Z,99826.63
2022-08-16T18:32:14.996Z,99823.97
2022-08-16T18:34:50.203Z,99820.81
2022-08-16T18:37:18.421Z,99811.81
2022-08-16T18:39:46.434Z,99818.06
2022-08-16T18:42:15.787Z,99811.03
2022-08-16T18:44:44.997Z,99807.41
2022-08-16T18:47:13.069Z,99807.97
2022-08-16T18:49:40.865Z,99806.88
2022-08-16T18:52:13.881Z,99800.16
2022-08-16T18:55:01.750Z,99794.81
2022-08-16T18:57:39.442Z,99794.81
2022-08-16T19:00:11.552Z,99794.81
2022-08-16T19:02:57.146Z,99789.75
2022-08-16T19:05:31.093Z,99792.97
2022-08-16T19:07:59.741Z,99800.88
2022-08-16T19:10:28.768Z,99793.63
2022-08-16T19:12:57.103Z,99803.75
2022-08-16T19:15:28.797Z,99797.31
2022-08-16T19:17:57.214Z,99800.09
2022-08-16T19:20:27.571Z,99804.06
2022-08-16T19:23:04.948Z,99807.41
2022-08-16T19:25:47.351Z,99811.63
2022-08-16T19:28:51.580Z,99811.06
2022-08-16T19:31:24.928Z,99812.47
2022-08-16T19:33:55.783Z,99809.69
2022-08-16T19:36:36.746Z,99809.25
2022-08-16T19:39:12.238Z,99816.56
2022-08-16T19:41:43.974Z,99813.13
2022-08-16T19:44:12.757Z,99821.03
2022-08-16T19:46:46.533Z,99820.34
2022-08-16T19:49:14.988Z,99826.84
2022-08-16T19:51:48.723Z,99826.19
2022-08-16T19:54:17.838Z,99825.38
2022-08-16T19:56:45.810Z,99824.25
2022-08-16T19:59:19.871Z,99824.22
2022-08-16T20:01:51.997Z,99826.47
2022-08-16T20:04:22.137Z,99828.75
2022-08-16T20:06:52.571Z,99825.94
2022-08-16T20:09:22.532Z,99824.81
2022-08-16T20:11:52.367Z,99822.00
2022-08-16T20:14:26.083Z,99826.19
2022-08-16T20:16:56.119Z,99823.25
2022-08-16T20:19:25.213Z,99821.28
2022-08-16T20:21:53.775Z,99820.88
2022-08-16T20:24:37.008Z,99814.53
2022-08-16T20:27:07.673Z,99826.03
2022-08-16T20:29:37.094Z,99809.19
2022-08-16T20:32:07.543Z,99805.13
2022-08-16T20:34:35.920Z,99811.25
2022-08-16T20:37:06.442Z,99813.75
2022-08-16T20:39:34.636Z,99814.84
2022-08-16T20:42:02.866Z,99817.50
2022-08-16T20:44:30.684Z,99813.56
2022-08-16T20:46:58.731Z,99814.22
2022-08-16T20:49:28.411Z,99824.88
2022-08-16T20:51:59.544Z,99824.28
2022-08-16T20:54:29.666Z,99826.50
2022-08-16T20:56:57.870Z,99826.78
2022-08-16T20:59:26.292Z,99831.81
2022-08-16T21:01:54.948Z,99836.00
2022-08-16T21:04:25.561Z,99829.53
2022-08-16T21:06:55.095Z,99828.09
2022-08-16T21:09:31.363Z,99830.56
2022-08-16T21:12:02.237Z,99835.16
2022-08-16T21:14:34.038Z,99839.25
2022-08-16T21:17:08.436Z,99827.81
2022-08-16T21:19:37.142Z,99828.97
2022-08-16T21:22:24.815Z,99827.56
2022-08-16T21:24:53.162Z,99830.88
2022-08-16T21:27:22.445Z,99835.88
2022-08-16T21:29:55.685Z,99831.91
2022-08-16T21:32:35.131Z,99826.53
2022-08-16T21:35:13.373Z,99829.06
2022-08-16T21:37:42.483Z,99828.03
2022-08-16T21:40:32.366Z,99825.28
2022-08-16T21:43:10.094Z,99831.28
2022-08-16T21:45:39.196Z,99828.69
2022-08-16T21:48:07.906Z,99825.09
2022-08-16T21:50:37.596Z,99823.09
2022-08-16T21:53:11.076Z,99822.66
2022-08-16T21:55:41.127Z,99828.88
2022-08-16T21:58:09.498Z,99832.78
2022-08-16T22:00:37.849Z,99834.72
2022-08-16T22:03:09.904Z,99839.28
2022-08-16T22:05:40.338Z,99835.44
2022-08-16T22:08:08.775Z,99836.66
2022-08-16T22:11:04.923Z,99834.97
2022-08-16T22:13:27.177Z,99837.88
2022-08-16T22:15:55.953Z,99843.91
2022-08-16T22:18:24.809Z,99848.97
2022-08-16T22:20:53.771Z,99848.06
2022-08-16T22:23:24.281Z,99847.00
2022-08-16T22:25:54.305Z,99849.03
2022-08-16T22:28:23.890Z,99851.00
2022-08-16T22:30:52.083Z,99860.78
2022-08-16T22:33:26.389Z,99854.88
2022-08-16T22:36:00.788Z,99853.31
2022-08-16T22:38:56.363Z,99847.63
2022-08-16T22:41:18.411Z,99850.78
2022-08-16T22:43:50.229Z,99858.00
2022-08-16T22:46:19.661Z,99849.56
2022-08-16T22:48:50.675Z,99856.34
2022-08-16T22:51:23.805Z,99850.44
2022-08-16T22:53:52.801Z,99849.72
2022-08-16T22:56:21.486Z,99843.78
2022-08-16T22:58:49.270Z,99847.03
2022-08-16T23:01:19.428Z,99845.44
2022-08-16T23:03:47.853Z,99837.00
2022-08-16T23:06:16.355Z,99835.53
2022-08-16T23:08:44.886Z,99832.84
2022-08-16T23:11:22.841Z,99831.34
2022-08-16T23:13:54.396Z,99831.72
2022-08-16T23:16:33.731Z,99829.78
2022-08-16T23:19:09.183Z,99830.28
2022-08-16T23:21:40.830Z,99827.16
2022-08-16T23:24:09.456Z,99825.81
2022-08-16T23:26:47.641Z,99835.34
2022-08-16T23:29:24.313Z,99838.03
2022-08-16T23:32:09.977Z,99825.00
2022-08-16T23:34:38.363Z,99828.78
2022-08-16T23:37:06.788Z,99829.34
2022-08-16T23:39:35.883Z,99825.72
2022-08-16T23:42:14.649Z,99830.97
2022-08-16T23:44:57.684Z,99828.66
2022-08-16T23:47:27.120Z,99827.47
2022-08-16T23:50:01.062Z,99824.81
2022-08-16T23:52:40.575Z,99821.44
2022-08-16T23:55:19.717Z,99826.13
2022-08-16T23:57:48.032Z,99821.69
